createdAt,value
2023-05-14T00:02:06.343Z,8.17
2023-05-14T00:07:07.971Z,8.05
2023-05-14T00:12:09.807Z,7.98
2023-05-14T00:17:11.621Z,7.95
2023-05-14T00:22:13.451Z,7.93
2023-05-14T00:27:15.281Z,7.96
2023-05-14T00:32:17.130Z,7.96
2023-05-14T00:37:19.028Z,8.01
2023-05-14T00:42:20.732Z,8.00
2023-05-14T00:47:22.567Z,7.91
2023-05-14T00:52:24.586Z,7.85
2023-05-14T00:57:26.627Z,7.84
2023-05-14T01:02:28.322Z,7.79
2023-05-14T01:07:43.953Z,7.74
2023-05-14T01:12:55.501Z,7.76
2023-05-14T01:18:01.798Z,7.77
2023-05-14T01:23:03.956Z,7.75
2023-05-14T01:28:13.059Z,7.70
2023-05-14T01:33:18.113Z,7.64
2023-05-14T01:38:21.361Z,7.56
2023-05-14T01:43:23.944Z,7.44
2023-05-14T01:48:25.793Z,7.25
2023-05-14T01:53:27.777Z,7.06
2023-05-14T01:58:29.589Z,6.98
2023-05-14T02:03:31.474Z,6.98
2023-05-14T02:08:33.599Z,6.99
2023-05-14T02:13:36.254Z,6.97
2023-05-14T02:18:37.988Z,6.92
2023-05-14T02:23:41.935Z,6.89
2023-05-14T02:28:44.495Z,6.89
2023-05-14T02:33:47.990Z,6.96
2023-05-14T02:38:49.659Z,7.00
2023-05-14T02:43:52.538Z,7.06
2023-05-14T02:48:54.367Z,7.09
2023-05-14T02:53:56.146Z,6.99
2023-05-14T02:58:57.836Z,6.89
2023-05-14T03:04:00.292Z,6.88
2023-05-14T03:09:02.043Z,6.83
2023-05-14T03:14:03.819Z,6.73
2023-05-14T03:19:05.882Z,6.69
2023-05-14T03:24:07.772Z,6.73
2023-05-14T03:29:10.788Z,6.74
2023-05-14T03:34:12.658Z,6.76
2023-05-14T03:39:19.517Z,6.89
2023-05-14T03:44:21.269Z,7.05
2023-05-14T03:49:23.090Z,7.25
2023-05-14T03:54:26.443Z,7.39
2023-05-14T03:59:28.723Z,7.60
2023-05-14T04:04:30.406Z,7.72
2023-05-14T04:09:32.210Z,7.62
2023-05-14T04:14:33.879Z,7.58
2023-05-14T04:19:35.830Z,8.07
2023-05-14T04:24:38.020Z,9.39
2023-05-14T04:29:39.693Z,11.19
2023-05-14T04:34:41.506Z,12.06
2023-05-14T04:39:43.664Z,13.25
2023-05-14T04:44:45.299Z,14.74
2023-05-14T04:49:47.023Z,16.10
2023-05-14T04:54:48.700Z,17.12
2023-05-14T04:59:50.373Z,18.16
2023-05-14T05:04:52.169Z,19.23
2023-05-14T05:09:53.989Z,19.98
2023-05-14T05:14:57.439Z,20.90
2023-05-14T05:19:59.162Z,21.61
2023-05-14T05:25:01.099Z,22.34
2023-05-14T05:30:04.045Z,23.08
2023-05-14T05:35:06.667Z,23.52
2023-05-14T05:40:10.213Z,23.57
2023-05-14T05:45:11.878Z,23.57
2023-05-14T05:50:14.935Z,23.87
2023-05-14T05:55:16.746Z,23.97
2023-05-14T06:00:19.157Z,24.39
2023-05-14T06:05:20.931Z,24.97
2023-05-14T06:10:22.991Z,25.51
2023-05-14T06:15:25.125Z,26.13
2023-05-14T06:20:26.995Z,26.70
2023-05-14T06:25:28.825Z,27.45
2023-05-14T06:30:30.623Z,28.00
2023-05-14T06:35:33.019Z,28.33
2023-05-14T06:40:34.684Z,28.06
2023-05-14T06:45:36.595Z,28.00
2023-05-14T06:50:38.433Z,27.76
2023-05-14T06:55:40.179Z,27.71
2023-05-14T07:00:41.971Z,27.92
2023-05-14T07:05:45.905Z,27.37
2023-05-14T07:10:47.624Z,26.77
2023-05-14T07:15:49.421Z,26.66
2023-05-14T07:20:51.265Z,26.82
2023-05-14T07:25:52.970Z,27.15
2023-05-14T07:30:54.666Z,27.42
2023-05-14T07:35:56.408Z,27.60
2023-05-14T07:40:58.564Z,27.79
2023-05-14T07:46:00.400Z,27.88
2023-05-14T07:51:02.082Z,27.91
2023-05-14T07:56:03.913Z,27.90
2023-05-14T08:01:07.260Z,28.00
2023-05-14T08:06:09.339Z,28.23
2023-05-14T08:11:11.138Z,28.52
2023-05-14T08:16:12.953Z,28.73
2023-05-14T08:21:14.964Z,28.58
2023-05-14T08:26:16.940Z,28.44
2023-05-14T08:31:18.698Z,28.62
2023-05-14T08:36:20.749Z,28.71
2023-05-14T08:41:22.749Z,29.01
2023-05-14T08:46:27.326Z,29.26
2023-05-14T08:51:29.119Z,29.03
2023-05-14T08:56:33.286Z,28.86
2023-05-14T09:01:35.876Z,28.81
2023-05-14T09:06:39.487Z,28.89
2023-05-14T09:11:48.634Z,28.78
2023-05-14T09:16:51.499Z,28.52
2023-05-14T09:21:58.382Z,28.28
2023-05-14T09:27:00.119Z,28.06
2023-05-14T09:32:05.360Z,27.97
2023-05-14T09:37:09.325Z,28.03
2023-05-14T09:42:11.009Z,27.78
2023-05-14T09:47:15.608Z,27.43
2023-05-14T09:52:19.716Z,26.97
2023-05-14T09:57:21.623Z,26.40
2023-05-14T10:02:27.458Z,26.03
2023-05-14T10:07:38.750Z,25.74
2023-05-14T10:12:40.869Z,25.46
2023-05-14T10:17:47.265Z,25.20
2023-05-14T10:22:49.126Z,24.97
2023-05-14T10:27:51.027Z,24.59
2023-05-14T10:33:12.688Z,24.32
2023-05-14T10:38:15.282Z,24.18
2023-05-14T10:43:17.627Z,24.18
2023-05-14T10:48:19.913Z,24.18
2023-05-14T10:53:34.644Z,24.06
2023-05-14T10:58:42.191Z,24.00
2023-05-14T11:03:46.343Z,23.95
2023-05-14T11:08:51.194Z,23.88
2023-05-14T11:13:53.735Z,23.78
2023-05-14T11:19:03.476Z,23.80
2023-05-14T11:24:07.428Z,23.72
2023-05-14T11:29:10.465Z,23.60
2023-05-14T11:34:12.152Z,23.55
2023-05-14T11:39:20.248Z,23.52
2023-05-14T11:44:22.625Z,23.39
2023-05-14T11:49:25.408Z,23.42
2023-05-14T11:54:31.358Z,23.41
2023-05-14T11:59:33.082Z,23.34
2023-05-14T12:04:34.887Z,23.32
2023-05-14T12:09:45.194Z,23.24
2023-05-14T12:14:48.208Z,23.16
2023-05-14T12:19:51.924Z,23.13
2023-05-14T12:24:58.780Z,23.13
2023-05-14T12:30:21.164Z,23.08
2023-05-14T12:35:24.028Z,23.08
2023-05-14T12:40:26.324Z,23.10
2023-05-14T12:45:28.198Z,23.14
2023-05-14T12:50:29.928Z,23.21
2023-05-14T12:55:31.742Z,23.29
2023-05-14T13:00:33.425Z,23.31
2023-05-14T13:05:35.864Z,23.34
2023-05-14T13:10:37.908Z,23.36
2023-05-14T13:15:39.565Z,23.34
2023-05-14T13:20:43.224Z,23.34
2023-05-14T13:25:46.478Z,23.17
2023-05-14T13:31:10.299Z,23.00
2023-05-14T13:36:14.997Z,22.89
2023-05-14T13:41:16.835Z,22.71
2023-05-14T13:46:18.532Z,22.57
2023-05-14T13:51:20.325Z,22.56
2023-05-14T13:56:22.034Z,22.57
2023-05-14T14:01:23.808Z,22.57
2023-05-14T14:06:27.163Z,22.60
2023-05-14T14:11:28.966Z,22.63
2023-05-14T14:16:30.720Z,22.53
2023-05-14T14:21:33.033Z,22.32
2023-05-14T14:26:34.670Z,22.10
2023-05-14T14:31:36.387Z,21.82
2023-05-14T14:36:38.263Z,21.60
2023-05-14T14:41:40.183Z,21.44
2023-05-14T14:46:42.935Z,21.36
2023-05-14T14:51:44.756Z,21.30
2023-05-14T14:56:48.238Z,21.21
2023-05-14T15:01:49.909Z,21.08
2023-05-14T15:06:51.673Z,20.92
2023-05-14T15:11:53.624Z,20.75
2023-05-14T15:16:55.373Z,20.70
2023-05-14T15:21:57.247Z,20.68
2023-05-14T15:26:58.961Z,20.65
2023-05-14T15:32:00.725Z,20.60
2023-05-14T15:37:02.918Z,20.52
2023-05-14T15:42:06.481Z,20.43
2023-05-14T15:47:08.187Z,20.31
2023-05-14T15:52:10.039Z,20.17
2023-05-14T15:57:12.007Z,20.01
2023-05-14T16:02:15.126Z,19.87
2023-05-14T16:07:16.892Z,19.75
2023-05-14T16:12:18.794Z,19.70
2023-05-14T16:17:20.509Z,19.68
2023-05-14T16:22:22.126Z,19.65
2023-05-14T16:27:23.917Z,19.62
2023-05-14T16:32:25.547Z,19.55
2023-05-14T16:37:27.663Z,19.47
2023-05-14T16:42:29.464Z,19.33
2023-05-14T16:47:31.174Z,19.14
2023-05-14T16:52:33.124Z,18.86
2023-05-14T16:57:35.225Z,18.44
2023-05-14T17:02:37.179Z,17.99
2023-05-14T17:07:39.266Z,17.63
2023-05-14T17:12:40.910Z,17.34
2023-05-14T17:17:42.700Z,17.08
2023-05-14T17:22:44.423Z,16.87
2023-05-14T17:27:46.182Z,16.67
2023-05-14T17:32:50.346Z,16.51
2023-05-14T17:37:52.813Z,16.37
2023-05-14T17:42:54.645Z,16.23
2023-05-14T17:47:56.344Z,16.05
2023-05-14T17:52:58.101Z,15.83
2023-05-14T17:57:59.912Z,15.56
2023-05-14T18:03:01.773Z,15.34
2023-05-14T18:08:03.628Z,15.14
2023-05-14T18:13:05.642Z,14.95
2023-05-14T18:18:07.919Z,14.83
2023-05-14T18:23:09.802Z,14.73
2023-05-14T18:28:12.919Z,14.64
2023-05-14T18:33:14.695Z,14.61
2023-05-14T18:38:17.886Z,14.57
2023-05-14T18:43:20.019Z,14.54
2023-05-14T18:48:21.874Z,14.47
2023-05-14T18:53:23.607Z,14.38
2023-05-14T18:58:25.726Z,14.29
2023-05-14T19:03:28.965Z,14.22
2023-05-14T19:08:30.723Z,14.16
2023-05-14T19:13:32.992Z,14.13
2023-05-14T19:18:34.698Z,14.11
2023-05-14T19:23:36.370Z,14.09
2023-05-14T19:28:38.971Z,14.03
2023-05-14T19:33:40.762Z,13.97
2023-05-14T19:38:42.395Z,13.96
2023-05-14T19:43:44.029Z,13.95
2023-05-14T19:48:45.714Z,13.91
2023-05-14T19:53:47.539Z,13.86
2023-05-14T19:58:49.356Z,13.81
2023-05-14T20:03:50.958Z,13.75
2023-05-14T20:08:52.707Z,13.76
2023-05-14T20:13:54.663Z,13.76
2023-05-14T20:18:56.511Z,13.72
2023-05-14T20:23:58.225Z,13.64
2023-05-14T20:29:00.201Z,13.55
2023-05-14T20:34:02.306Z,13.44
2023-05-14T20:39:06.159Z,13.31
2023-05-14T20:44:08.073Z,13.15
2023-05-14T20:49:09.694Z,13.05
2023-05-14T20:54:11.421Z,12.99
2023-05-14T20:59:13.266Z,12.92
2023-05-14T21:04:15.282Z,12.85
2023-05-14T21:09:24.702Z,12.79
2023-05-14T21:14:31.662Z,12.71
2023-05-14T21:19:33.312Z,12.68
2023-05-14T21:24:35.024Z,12.66
2023-05-14T21:29:36.953Z,12.67
2023-05-14T21:34:38.689Z,12.70
2023-05-14T21:39:41.134Z,12.71
2023-05-14T21:44:43.593Z,12.73
2023-05-14T21:49:53.501Z,12.76
2023-05-14T21:54:55.187Z,12.77
2023-05-14T21:59:58.135Z,12.79
2023-05-14T22:04:59.734Z,12.81
2023-05-14T22:10:01.469Z,12.81
2023-05-14T22:15:03.821Z,12.80
2023-05-14T22:20:06.999Z,12.78
2023-05-14T22:25:09.221Z,12.76
2023-05-14T22:30:11.633Z,12.75
2023-05-14T22:35:13.276Z,12.75
2023-05-14T22:40:15.086Z,12.78
2023-05-14T22:45:16.904Z,12.81
2023-05-14T22:50:18.694Z,12.82
2023-05-14T22:55:20.343Z,12.81
2023-05-14T23:00:22.178Z,12.81
2023-05-14T23:05:24.028Z,12.82
2023-05-14T23:10:29.686Z,12.84
2023-05-14T23:15:36.169Z,12.83
2023-05-14T23:20:37.810Z,12.82
2023-05-14T23:25:39.506Z,12.81
2023-05-14T23:30:41.368Z,12.80
2023-05-14T23:35:43.304Z,12.83
2023-05-14T23:40:45.664Z,12.86
2023-05-14T23:45:50.430Z,12.90
2023-05-14T23:50:54.716Z,12.88
2023-05-14T23:55:56.567Z,12.83
